Bricelyn, Minnesota
Current Conditions -  °F | °C
As of 10:35 AM on Wednesday 22 Oct 2014 (Local Time) from KAEL Reporting Station
Broken Clouds Broken Clouds  
Wind Chill: 39°   Ceiling: 5000
Heat Index: 46°   Visibility: 10mi
Dew Point: 39°   Wind: 20mph
Humidity: 76%   Direction: 160°SSE
Pressure: 30.19"   Gusts: 24mph
Location:  43.56°N, 93.81°W
Report Text: KAEL 221535Z AUTO 16017G21KT 10SM BKN050 BKN060 08/04 A3019 RMK AO2
Loading
Personal Weather Stations






























Interactive Weather Map
Tropical Storm Tracking
New forecast layout! Learn more

10-Day Weather Forecast

Advertisements
Track Severe Weather on mobile